createdAt,value
2018-04-11T00:01:41.396Z,5.03
2018-04-11T00:04:07.384Z,5.50
2018-04-11T00:06:33.341Z,6.20
2018-04-11T00:08:59.372Z,5.13
2018-04-11T00:11:25.341Z,4.80
2018-04-11T00:13:51.300Z,5.30
2018-04-11T00:16:18.044Z,5.10
2018-04-11T00:18:44.041Z,5.33
2018-04-11T00:21:10.005Z,4.83
2018-04-11T00:23:36.036Z,4.90
2018-04-11T00:26:02.030Z,4.93
2018-04-11T00:28:28.040Z,5.13
2018-04-11T00:30:54.739Z,6.20
2018-04-11T00:33:20.728Z,5.23
2018-04-11T00:35:47.427Z,6.10
2018-04-11T00:38:13.431Z,5.70
2018-04-11T00:40:39.408Z,5.60
2018-04-11T00:43:05.371Z,5.90
2018-04-11T00:45:31.374Z,5.93
2018-04-11T00:47:57.349Z,6.10
2018-04-11T00:50:23.338Z,5.50
2018-04-11T00:55:46.057Z,5.50
2018-04-11T00:58:12.013Z,5.40
2018-04-11T01:00:38.004Z,5.80
2018-04-11T01:03:03.965Z,5.50
2018-04-11T01:05:29.976Z,6.67
2018-04-11T01:07:55.927Z,6.30
2018-04-11T01:10:21.916Z,6.60
2018-04-11T01:12:48.633Z,6.43
2018-04-11T01:15:14.687Z,7.27
2018-04-11T01:17:40.643Z,6.53
2018-04-11T01:20:07.333Z,6.47
2018-04-11T01:22:33.334Z,6.10
2018-04-11T01:25:00.094Z,6.43
2018-04-11T01:27:26.115Z,5.80
2018-04-11T01:29:52.803Z,5.50
2018-04-11T01:32:18.782Z,6.00
2018-04-11T01:34:44.776Z,6.13
2018-04-11T01:37:10.723Z,6.00
2018-04-11T01:39:36.711Z,6.57
2018-04-11T01:42:03.402Z,5.77
2018-04-11T01:44:29.405Z,5.80
2018-04-11T01:46:56.135Z,6.50
2018-04-11T01:49:22.111Z,6.80
2018-04-11T01:51:48.087Z,5.97
2018-04-11T01:54:14.070Z,6.03
2018-04-11T01:56:40.809Z,7.17
2018-04-11T01:59:07.504Z,7.60
2018-04-11T02:01:33.486Z,6.30
2018-04-11T02:03:59.498Z,6.87
2018-04-11T02:06:25.448Z,7.00
2018-04-11T02:08:51.448Z,7.53
2018-04-11T02:11:17.413Z,6.73
2018-04-11T02:13:43.379Z,6.90
2018-04-11T02:16:10.107Z,7.27
2018-04-11T02:18:36.096Z,6.50
2018-04-11T02:21:02.039Z,6.50
2018-04-11T02:23:28.043Z,6.10
2018-04-11T02:25:54.784Z,7.50
2018-04-11T02:28:21.506Z,8.17
2018-04-11T02:30:47.459Z,6.90
2018-04-11T02:33:13.461Z,7.60
2018-04-11T02:35:39.440Z,7.70
2018-04-11T02:38:05.409Z,7.87
2018-04-11T02:40:31.404Z,6.67
2018-04-11T02:42:57.367Z,6.90
2018-04-11T02:45:24.076Z,5.97
2018-04-11T02:47:50.056Z,7.73
2018-04-11T02:50:16.778Z,7.13
2018-04-11T02:52:42.772Z,7.37
2018-04-11T02:55:08.768Z,8.30
2018-04-11T02:57:34.725Z,6.93
2018-04-11T03:00:01.461Z,7.10
2018-04-11T03:02:28.222Z,6.80
2018-04-11T03:04:54.924Z,6.63
2018-04-11T03:07:20.918Z,8.00
2018-04-11T03:09:47.623Z,7.80
2018-04-11T03:12:13.620Z,7.97
2018-04-11T03:14:39.605Z,7.27
2018-04-11T03:17:05.592Z,8.17
2018-04-11T03:19:31.579Z,7.87
2018-04-11T03:21:57.573Z,7.47
2018-04-11T03:24:24.435Z,7.40
2018-04-11T03:26:50.399Z,8.27
2018-04-11T03:29:16.382Z,7.30
2018-04-11T03:31:43.131Z,8.57
2018-04-11T03:34:09.868Z,7.13
2018-04-11T03:36:35.853Z,8.87
2018-04-11T03:39:01.841Z,8.80
2018-04-11T03:41:27.846Z,9.27
2018-04-11T03:43:53.791Z,7.50
2018-04-11T03:46:19.792Z,8.00
2018-04-11T03:48:45.752Z,8.00
2018-04-11T03:51:11.712Z,8.67
2018-04-11T03:53:37.704Z,8.03
2018-04-11T03:56:03.647Z,8.33
2018-04-11T03:58:29.644Z,8.70
2018-04-11T04:00:56.344Z,7.30
2018-04-11T04:03:22.323Z,8.57
2018-04-11T04:05:48.262Z,8.50
2018-04-11T04:08:14.267Z,7.90
2018-04-11T04:10:40.266Z,8.60
2018-04-11T04:13:06.245Z,7.57
2018-04-11T04:15:44.579Z,8.47
2018-04-11T04:18:23.006Z,8.23
2018-04-11T04:20:48.996Z,9.10
2018-04-11T04:23:15.001Z,9.37
2018-04-11T04:25:41.740Z,8.17
2018-04-11T04:28:07.705Z,7.73
2018-04-11T04:30:33.705Z,9.30
2018-04-11T04:32:59.724Z,8.73
2018-04-11T04:35:25.716Z,7.80
2018-04-11T04:37:51.717Z,9.70
2018-04-11T04:40:17.679Z,8.67
2018-04-11T04:42:44.402Z,8.87
2018-04-11T04:45:10.393Z,8.20
2018-04-11T04:47:36.349Z,8.63
2018-04-11T04:50:02.351Z,9.03
2018-04-11T04:52:28.334Z,8.40
2018-04-11T04:54:54.296Z,8.87
2018-04-11T04:57:20.319Z,8.10
2018-04-11T04:59:46.282Z,8.83
2018-04-11T05:02:13.011Z,8.83
2018-04-11T05:04:38.973Z,8.60
2018-04-11T05:07:05.716Z,9.33
2018-04-11T05:09:32.437Z,9.90
2018-04-11T05:11:58.447Z,11.30
2018-04-11T05:14:24.416Z,9.47
2018-04-11T05:16:50.372Z,9.07
2018-04-11T05:19:16.356Z,9.73
2018-04-11T05:21:42.367Z,10.93
2018-04-11T05:24:09.043Z,9.83
2018-04-11T05:26:35.026Z,10.40
2018-04-11T05:29:01.034Z,10.03
2018-04-11T05:31:27.648Z,9.87
2018-04-11T05:33:53.640Z,10.70
2018-04-11T05:36:19.622Z,10.90
2018-04-11T05:38:45.563Z,11.13
2018-04-11T05:41:11.567Z,10.20
2018-04-11T05:43:38.315Z,10.03
2018-04-11T05:46:04.321Z,11.40
2018-04-11T05:48:30.299Z,10.03
2018-04-11T05:50:57.276Z,9.33
2018-04-11T05:53:23.303Z,10.50
2018-04-11T05:55:49.283Z,11.90
2018-04-11T05:58:15.276Z,10.70
2018-04-11T06:00:41.977Z,11.00
2018-04-11T06:03:07.964Z,10.60
2018-04-11T06:05:34.664Z,9.37
2018-04-11T06:08:00.644Z,11.07
2018-04-11T06:10:27.381Z,11.10
2018-04-11T06:12:53.360Z,11.00
2018-04-11T06:15:19.372Z,10.60
2018-04-11T06:17:46.107Z,10.00
2018-04-11T06:20:12.119Z,11.67
2018-04-11T06:22:38.071Z,11.87
2018-04-11T06:25:04.048Z,12.63
2018-04-11T06:27:30.077Z,11.43
2018-04-11T06:29:56.034Z,13.23
2018-04-11T06:32:22.041Z,13.50
2018-04-11T06:34:48.740Z,13.47
2018-04-11T06:37:14.767Z,14.10
2018-04-11T06:39:40.776Z,11.20
2018-04-11T06:42:07.517Z,10.57
2018-04-11T06:44:34.223Z,11.80
2018-04-11T06:47:00.207Z,12.50
2018-04-11T06:49:26.940Z,13.20
2018-04-11T06:51:52.891Z,13.70
2018-04-11T06:54:19.639Z,11.93
2018-04-11T06:56:45.633Z,12.07
2018-04-11T06:59:11.612Z,12.27
2018-04-11T07:01:37.607Z,12.60
2018-04-11T07:04:03.609Z,13.00
2018-04-11T07:06:30.367Z,13.50
2018-04-11T07:08:56.371Z,11.53
2018-04-11T07:11:22.321Z,12.07
2018-04-11T07:13:48.324Z,12.00
2018-04-11T07:16:14.320Z,13.47
2018-04-11T07:18:40.306Z,14.87
2018-04-11T07:21:06.294Z,12.43
2018-04-11T07:23:32.311Z,13.03
2018-04-11T07:25:59.121Z,13.77
2018-04-11T07:28:25.078Z,10.90
2018-04-11T07:30:51.065Z,12.77
2018-04-11T07:33:17.028Z,12.20
2018-04-11T07:35:43.022Z,13.70
2018-04-11T07:38:09.061Z,11.00
2018-04-11T07:40:35.020Z,11.23
2018-04-11T07:43:01.027Z,11.33
2018-04-11T07:45:27.782Z,11.33
2018-04-11T07:47:54.484Z,10.30
2018-04-11T07:50:20.507Z,12.00
2018-04-11T07:52:46.464Z,11.63
2018-04-11T07:55:12.683Z,11.47
2018-04-11T07:57:38.659Z,12.13
2018-04-11T08:00:04.633Z,11.60
2018-04-11T08:02:31.369Z,11.63
2018-04-11T08:04:58.158Z,11.73
2018-04-11T08:07:24.182Z,12.10
2018-04-11T08:09:50.145Z,11.53
2018-04-11T08:12:16.139Z,11.70
2018-04-11T08:14:42.882Z,11.40
2018-04-11T08:17:08.860Z,10.03
2018-04-11T08:19:34.823Z,10.27
2018-04-11T08:22:00.820Z,10.87
2018-04-11T08:24:26.804Z,9.57
2018-04-11T08:26:52.777Z,9.33
2018-04-11T08:29:19.517Z,7.80
2018-04-11T08:31:46.213Z,7.87
2018-04-11T08:34:12.225Z,7.57
2018-04-11T08:36:38.205Z,8.27
2018-04-11T08:39:04.944Z,7.60
2018-04-11T08:41:30.994Z,6.83
2018-04-11T08:43:56.963Z,7.07
2018-04-11T08:46:23.696Z,7.60
2018-04-11T08:48:49.693Z,7.43
2018-04-11T08:51:15.655Z,7.33
2018-04-11T08:53:42.355Z,8.20
2018-04-11T08:56:09.077Z,9.03
2018-04-11T08:58:35.088Z,9.53
2018-04-11T09:01:01.067Z,9.17
2018-04-11T09:03:27.036Z,7.70
2018-04-11T09:05:53.103Z,8.37
2018-04-11T09:08:19.060Z,7.20
2018-04-11T09:10:45.079Z,7.20
2018-04-11T09:13:11.035Z,8.43
2018-04-11T09:15:37.013Z,7.00
2018-04-11T09:18:02.981Z,6.40
2018-04-11T09:20:29.057Z,6.13
2018-04-11T09:22:55.767Z,6.90
2018-04-11T09:25:21.732Z,7.33
2018-04-11T09:27:47.733Z,6.00
2018-04-11T09:30:13.694Z,6.90
2018-04-11T09:32:39.683Z,6.83
2018-04-11T09:35:05.648Z,5.93
2018-04-11T09:37:31.662Z,5.73
2018-04-11T09:39:57.715Z,5.70
2018-04-11T09:42:23.691Z,6.60
2018-04-11T09:44:49.696Z,5.80
2018-04-11T09:47:15.827Z,6.00
2018-04-11T09:49:41.788Z,5.93
2018-04-11T09:52:07.796Z,5.40
2018-04-11T09:54:33.797Z,5.50
2018-04-11T09:57:00.583Z,5.40
2018-04-11T09:59:26.599Z,6.43
2018-04-11T10:01:53.304Z,5.60
2018-04-11T10:04:19.311Z,7.53
2018-04-11T10:06:45.371Z,6.43
2018-04-11T10:09:11.390Z,6.17
2018-04-11T10:11:37.340Z,6.83
2018-04-11T10:14:03.347Z,6.73
2018-04-11T10:16:29.376Z,5.73
2018-04-11T10:18:55.395Z,6.47
2018-04-11T10:21:22.105Z,5.30
2018-04-11T10:23:48.061Z,6.17
2018-04-11T10:26:14.055Z,5.70
2018-04-11T10:28:40.305Z,5.90
2018-04-11T10:31:06.277Z,5.80
2018-04-11T10:33:32.321Z,5.43
2018-04-11T10:35:59.190Z,6.30
2018-04-11T10:38:25.887Z,5.40
2018-04-11T10:40:51.869Z,6.60
2018-04-11T10:43:17.863Z,6.27
2018-04-11T10:45:43.854Z,6.50
2018-04-11T10:48:09.864Z,6.47
2018-04-11T10:50:35.849Z,6.33
2018-04-11T10:53:01.851Z,6.00
2018-04-11T10:55:27.855Z,6.40
2018-04-11T10:57:53.863Z,6.17
2018-04-11T11:00:19.857Z,5.00
2018-04-11T11:02:45.852Z,5.10
2018-04-11T11:05:11.807Z,5.50
2018-04-11T11:07:37.846Z,5.83
2018-04-11T11:10:03.836Z,5.83
2018-04-11T11:12:30.604Z,5.60
2018-04-11T11:14:56.567Z,5.37
2018-04-11T11:17:22.555Z,5.50
2018-04-11T11:20:00.509Z,5.97
2018-04-11T11:22:26.545Z,5.40
2018-04-11T11:24:53.480Z,5.97
2018-04-11T11:27:19.458Z,6.80
2018-04-11T11:29:45.447Z,6.80
2018-04-11T11:32:11.439Z,6.67
2018-04-11T11:34:37.407Z,8.20
2018-04-11T11:37:04.148Z,8.00
2018-04-11T11:39:30.143Z,6.77
2018-04-11T11:41:56.127Z,6.63
2018-04-11T11:44:22.632Z,7.20
2018-04-11T11:46:48.595Z,6.03
2018-04-11T11:49:14.597Z,6.60
2018-04-11T11:51:40.667Z,6.40
2018-04-11T11:54:06.627Z,6.30
2018-04-11T11:56:33.323Z,6.00
2018-04-11T11:58:59.340Z,5.90
2018-04-11T12:01:25.338Z,5.93
2018-04-11T12:03:51.285Z,5.40
2018-04-11T12:06:17.303Z,8.57
2018-04-11T12:08:43.304Z,6.60
2018-04-11T12:11:09.374Z,6.40
2018-04-11T12:13:35.351Z,6.50
2018-04-11T12:16:01.429Z,6.03
2018-04-11T12:18:27.424Z,6.20
2018-04-11T12:20:54.156Z,6.00
2018-04-11T12:23:20.146Z,6.30
2018-04-11T12:25:46.143Z,7.00
2018-04-11T12:28:12.884Z,5.70
2018-04-11T12:30:39.674Z,5.30
2018-04-11T12:33:05.679Z,7.13
2018-04-11T12:35:32.423Z,4.53
2018-04-11T12:37:58.404Z,7.10
2018-04-11T12:40:24.410Z,5.40
2018-04-11T12:42:51.117Z,5.73
2018-04-11T12:45:17.112Z,5.30
2018-04-11T12:47:43.073Z,6.40
2018-04-11T12:50:09.103Z,6.50
2018-04-11T12:52:35.059Z,5.60
2018-04-11T12:55:01.033Z,5.70
2018-04-11T12:57:27.051Z,6.33
2018-04-11T12:59:53.007Z,5.60
2018-04-11T13:02:19.008Z,8.67
2018-04-11T13:04:44.985Z,8.30
2018-04-11T13:07:11.786Z,8.03
2018-04-11T13:09:37.769Z,6.60
2018-04-11T13:12:03.729Z,6.70
2018-04-11T13:14:29.769Z,6.33
2018-04-11T13:16:55.744Z,6.50
2018-04-11T13:19:21.715Z,7.27
2018-04-11T13:21:47.739Z,8.00
2018-04-11T13:24:13.816Z,7.77
2018-04-11T13:26:39.834Z,8.63
2018-04-11T13:29:06.552Z,7.60
2018-04-11T13:31:32.561Z,7.40
2018-04-11T13:33:58.584Z,8.10
2018-04-11T13:36:25.328Z,7.37
2018-04-11T13:38:51.323Z,7.63
2018-04-11T13:41:17.364Z,9.80
2018-04-11T13:43:43.344Z,9.57
2018-04-11T13:46:10.146Z,8.23
2018-04-11T13:48:36.128Z,8.83
2018-04-11T13:51:02.105Z,6.20
2018-04-11T13:53:28.107Z,6.57
2018-04-11T13:55:54.064Z,6.70
2018-04-11T13:58:20.043Z,6.70
2018-04-11T14:00:45.999Z,5.23
2018-04-11T14:03:13.090Z,6.57
2018-04-11T14:05:39.632Z,6.23
2018-04-11T14:08:05.587Z,7.23
2018-04-11T14:10:31.612Z,7.33
2018-04-11T14:12:58.072Z,5.80
2018-04-11T14:15:24.538Z,5.63
2018-04-11T14:17:50.574Z,6.40
2018-04-11T14:20:16.588Z,5.80
2018-04-11T14:22:42.586Z,5.53
2018-04-11T14:25:09.841Z,5.87
2018-04-11T14:27:36.369Z,6.67
2018-04-11T14:30:02.385Z,7.07
2018-04-11T14:32:28.830Z,6.50
2018-04-11T14:34:54.811Z,5.77
2018-04-11T14:37:21.165Z,7.50
2018-04-11T14:39:47.920Z,6.80
2018-04-11T14:42:15.146Z,7.03
2018-04-11T14:44:41.479Z,6.90
2018-04-11T14:47:07.497Z,6.20
2018-04-11T14:49:33.503Z,6.17
2018-04-11T14:52:00.205Z,6.73
2018-04-11T14:54:26.247Z,6.37
2018-04-11T14:56:52.235Z,8.00
2018-04-11T14:59:18.948Z,6.50
2018-04-11T15:01:44.934Z,7.53
2018-04-11T15:04:11.675Z,6.40
2018-04-11T15:06:37.936Z,6.33
2018-04-11T15:09:03.953Z,7.50
2018-04-11T15:11:30.660Z,6.70
2018-04-11T15:13:56.655Z,7.50
2018-04-11T15:16:23.339Z,7.30
2018-04-11T15:18:49.354Z,7.80
2018-04-11T15:21:15.345Z,7.43
2018-04-11T15:23:41.424Z,8.10
2018-04-11T15:26:07.760Z,7.03
2018-04-11T15:28:34.480Z,7.37
2018-04-11T15:31:00.536Z,8.33
2018-04-11T15:33:26.486Z,7.57
2018-04-11T15:35:53.222Z,7.43
2018-04-11T15:38:19.204Z,8.27
2018-04-11T15:40:45.239Z,7.90
2018-04-11T15:43:11.256Z,7.23
2018-04-11T15:45:38.085Z,7.43
2018-04-11T15:48:04.065Z,8.23
2018-04-11T15:50:30.041Z,8.27
2018-04-11T15:52:57.077Z,7.50
2018-04-11T15:55:23.051Z,6.97
2018-04-11T15:57:49.049Z,6.13
2018-04-11T16:00:15.040Z,5.90
2018-04-11T16:02:41.804Z,6.53
2018-04-11T16:05:07.868Z,7.27
2018-04-11T16:07:33.836Z,7.40
2018-04-11T16:09:59.811Z,10.10
2018-04-11T16:12:26.599Z,7.50
2018-04-11T16:14:52.547Z,8.23
2018-04-11T16:17:18.528Z,8.30
2018-04-11T16:19:44.525Z,8.70
2018-04-11T16:22:10.582Z,7.60
2018-04-11T16:24:36.569Z,8.37
2018-04-11T16:27:02.561Z,9.27
2018-04-11T16:29:28.551Z,10.40
2018-04-11T16:31:54.570Z,9.33
2018-04-11T16:34:21.260Z,8.13
2018-04-11T16:36:47.225Z,8.60
2018-04-11T16:39:13.246Z,9.00
2018-04-11T16:41:39.274Z,8.83
2018-04-11T16:44:05.323Z,7.80
2018-04-11T16:46:31.285Z,8.53
2018-04-11T16:48:57.323Z,7.00
2018-04-11T16:51:23.257Z,7.43
2018-04-11T16:53:49.215Z,8.20
2018-04-11T16:56:15.205Z,6.70
2018-04-11T16:58:41.230Z,6.80
2018-04-11T17:01:07.188Z,6.10
2018-04-11T17:03:40.443Z,6.00
2018-04-11T17:06:06.528Z,5.83
2018-04-11T17:08:32.480Z,6.60
2018-04-11T17:10:58.472Z,7.97
2018-04-11T17:13:24.460Z,6.30
2018-04-11T17:15:51.155Z,5.97
2018-04-11T17:18:17.171Z,6.77
2018-04-11T17:20:56.332Z,6.60
2018-04-11T17:23:34.773Z,7.30
2018-04-11T17:26:13.251Z,5.73
2018-04-11T17:28:51.720Z,6.00
2018-04-11T17:31:33.772Z,6.80
2018-04-11T17:33:59.771Z,6.70
2018-04-11T17:36:25.724Z,7.57
2018-04-11T17:38:52.452Z,7.40
2018-04-11T17:41:18.410Z,7.57
2018-04-11T17:43:44.403Z,7.07
2018-04-11T17:46:11.185Z,7.63
2018-04-11T17:48:37.132Z,7.50
2018-04-11T17:51:03.137Z,8.30
2018-04-11T17:53:29.142Z,8.00
2018-04-11T17:55:55.091Z,8.67
2018-04-11T17:58:21.832Z,9.43
2018-04-11T18:00:47.807Z,9.50
2018-04-11T18:03:14.531Z,8.90
2018-04-11T18:05:41.256Z,8.97
2018-04-11T18:08:07.293Z,8.50
2018-04-11T18:10:33.337Z,8.20
2018-04-11T18:12:59.294Z,8.30
2018-04-11T18:15:25.279Z,8.70
2018-04-11T18:17:51.255Z,8.80
2018-04-11T18:20:18.756Z,8.10
2018-04-11T18:22:45.457Z,7.67
2018-04-11T18:25:11.475Z,7.87
2018-04-11T18:27:37.496Z,7.97
2018-04-11T18:30:03.498Z,7.33
2018-04-11T18:32:29.477Z,7.13
2018-04-11T18:34:55.437Z,6.90
2018-04-11T18:37:21.428Z,6.80
2018-04-11T18:39:48.127Z,7.30
2018-04-11T18:42:14.119Z,7.20
2018-04-11T18:44:40.844Z,7.10
2018-04-11T18:47:06.821Z,6.53
2018-04-11T18:49:32.799Z,7.17
2018-04-11T18:51:58.780Z,7.17
2018-04-11T18:54:25.512Z,7.10
2018-04-11T18:56:51.483Z,6.80
2018-04-11T18:59:17.497Z,7.60
2018-04-11T19:01:43.479Z,7.20
2018-04-11T19:04:09.608Z,8.43
2018-04-11T19:06:35.607Z,6.63
2018-04-11T19:09:01.573Z,7.17
2018-04-11T19:11:27.579Z,8.63
2018-04-11T19:13:53.523Z,7.97
2018-04-11T19:16:20.242Z,7.43
2018-04-11T19:18:46.356Z,6.40
2018-04-11T19:21:12.374Z,6.80
2018-04-11T19:23:38.361Z,8.87
2018-04-11T19:26:04.331Z,10.27
2018-04-11T19:28:31.068Z,7.50
2018-04-11T19:30:57.071Z,6.10
2018-04-11T19:33:23.055Z,6.40
2018-04-11T19:35:49.815Z,6.40
2018-04-11T19:38:16.535Z,5.90
2018-04-11T19:40:42.611Z,6.80
2018-04-11T19:43:09.402Z,6.73
2018-04-11T19:45:35.414Z,6.63
2018-04-11T19:48:01.389Z,6.80
2018-04-11T19:50:27.428Z,7.03
2018-04-11T19:52:53.405Z,6.67
2018-04-11T19:55:20.096Z,6.20
2018-04-11T19:57:46.137Z,6.90
2018-04-11T20:00:12.136Z,6.50
2018-04-11T20:02:38.898Z,6.70
2018-04-11T20:05:04.856Z,6.50
2018-04-11T20:07:30.882Z,6.20
2018-04-11T20:09:57.574Z,6.60
2018-04-11T20:12:23.507Z,7.53
2018-04-11T20:14:49.495Z,7.27
2018-04-11T20:17:16.186Z,7.40
2018-04-11T20:19:42.215Z,6.60
2018-04-11T20:22:08.328Z,6.70
2018-04-11T20:24:34.324Z,7.00
2018-04-11T20:27:00.309Z,6.17
2018-04-11T20:29:26.277Z,5.77
2018-04-11T20:31:52.284Z,6.63
2018-04-11T20:34:18.245Z,7.07
2018-04-11T20:36:44.224Z,6.00
2018-04-11T20:39:10.983Z,6.07
2018-04-11T20:41:37.717Z,6.70
2018-04-11T20:44:03.681Z,6.10
2018-04-11T20:46:29.640Z,6.27
2018-04-11T20:48:55.679Z,6.32
2018-04-11T20:51:21.632Z,6.70
2018-04-11T20:53:47.587Z,7.60
2018-04-11T20:56:13.607Z,7.77
2018-04-11T20:58:39.580Z,7.50
2018-04-11T21:01:06.306Z,6.87
2018-04-11T21:03:32.267Z,6.57
2018-04-11T21:05:58.334Z,6.40
2018-04-11T21:08:24.272Z,6.93
2018-04-11T21:10:50.253Z,7.60
2018-04-11T21:13:16.235Z,7.73
2018-04-11T21:15:42.297Z,7.00
2018-04-11T21:18:08.330Z,6.20
2018-04-11T21:20:34.307Z,6.50
2018-04-11T21:23:00.260Z,7.50
2018-04-11T21:25:26.971Z,7.00
2018-04-11T21:27:52.953Z,8.80
2018-04-11T21:30:19.631Z,8.00
2018-04-11T21:32:45.619Z,7.30
2018-04-11T21:35:11.615Z,8.47
2018-04-11T21:37:37.617Z,6.90
2018-04-11T21:40:04.307Z,8.20
2018-04-11T21:42:30.264Z,10.20
2018-04-11T21:44:56.257Z,11.90
2018-04-11T21:47:22.209Z,10.27
2018-04-11T21:49:48.187Z,10.37
2018-04-11T21:52:14.145Z,8.30
2018-04-11T21:54:40.898Z,8.53
2018-04-11T21:57:07.613Z,7.80
2018-04-11T21:59:33.580Z,8.50
2018-04-11T22:01:59.559Z,7.70
2018-04-11T22:04:25.535Z,8.60
2018-04-11T22:06:51.527Z,8.70
2018-04-11T22:09:17.511Z,7.87
2018-04-11T22:11:43.503Z,8.50
2018-04-11T22:14:09.589Z,9.63
2018-04-11T22:16:35.544Z,9.10
2018-04-11T22:19:02.265Z,9.43
2018-04-11T22:21:28.245Z,8.73
2018-04-11T22:23:54.214Z,8.63
2018-04-11T22:26:20.152Z,8.43
2018-04-11T22:28:46.146Z,8.00
2018-04-11T22:31:12.836Z,8.03
2018-04-11T22:33:38.860Z,8.80
2018-04-11T22:36:04.803Z,9.50
2018-04-11T22:38:30.796Z,10.23
2018-04-11T22:40:57.499Z,12.13
2018-04-11T22:43:23.480Z,10.63
2018-04-11T22:45:49.424Z,10.20
2018-04-11T22:48:16.167Z,10.60
2018-04-11T22:50:42.140Z,10.60
2018-04-11T22:53:08.141Z,9.67
2018-04-11T22:55:34.888Z,10.33
2018-04-11T22:58:00.839Z,10.57
2018-04-11T23:00:27.527Z,10.93
2018-04-11T23:02:53.495Z,10.33
2018-04-11T23:05:19.447Z,10.90
2018-04-11T23:07:45.440Z,10.30
2018-04-11T23:10:11.404Z,10.57
2018-04-11T23:12:37.448Z,9.47
2018-04-11T23:15:03.408Z,9.10
2018-04-11T23:17:30.112Z,9.33
2018-04-11T23:19:56.099Z,9.10
2018-04-11T23:22:22.812Z,10.03
2018-04-11T23:24:48.797Z,9.40
2018-04-11T23:27:15.532Z,9.00
2018-04-11T23:29:41.514Z,9.20
2018-04-11T23:32:07.501Z,9.20
2018-04-11T23:34:34.227Z,9.43
2018-04-11T23:37:00.171Z,8.80
2018-04-11T23:39:26.144Z,8.97
2018-04-11T23:41:52.866Z,9.27
2018-04-11T23:44:18.825Z,9.50
2018-04-11T23:46:45.548Z,9.10
2018-04-11T23:49:11.546Z,9.30
2018-04-11T23:51:37.499Z,8.90
2018-04-11T23:54:03.485Z,8.47
2018-04-11T23:56:30.181Z,9.10
2018-04-11T23:58:56.156Z,9.20
